sensor_id;sensor_type;location;lat;lon;timestamp;P1;durP1;ratioP1;P2;durP2;ratioP2
12038;SDS011;6080;48.818;9.526;2023-06-26T03:01:08;66.50;;;62.58;;
12038;SDS011;6080;48.818;9.526;2023-06-26T03:03:34;81.03;;;76.03;;
12038;SDS011;6080;48.818;9.526;2023-06-26T03:06:06;82.20;;;77.40;;
12038;SDS011;6080;48.818;9.526;2023-06-26T03:08:36;90.90;;;85.93;;
12038;SDS011;6080;48.818;9.526;2023-06-26T03:11:02;82.17;;;77.40;;
12038;SDS011;6080;48.818;9.526;2023-06-26T03:13:28;85.18;;;80.20;;
12038;SDS011;6080;48.818;9.526;2023-06-26T03:15:54;70.17;;;66.10;;
12038;SDS011;6080;48.818;9.526;2023-06-26T03:18:19;74.50;;;70.17;;
12038;SDS011;6080;48.818;9.526;2023-06-26T03:20:45;71.30;;;67.00;;
12038;SDS011;6080;48.818;9.526;2023-06-26T03:23:11;68.33;;;64.50;;
12038;SDS011;6080;48.818;9.526;2023-06-26T03:25:37;74.03;;;69.67;;
12038;SDS011;6080;48.818;9.526;2023-06-26T03:28:02;70.77;;;66.70;;
12038;SDS011;6080;48.818;9.526;2023-06-26T03:30:28;58.40;;;54.93;;
12038;SDS011;6080;48.818;9.526;2023-06-26T03:32:54;58.40;;;54.93;;
12038;SDS011;6080;48.818;9.526;2023-06-26T03:35:20;55.27;;;51.97;;
12038;SDS011;6080;48.818;9.526;2023-06-26T03:37:45;53.03;;;48.80;;
12038;SDS011;6080;48.818;9.526;2023-06-26T03:40:11;51.37;;;48.03;;
12038;SDS011;6080;48.818;9.526;2023-06-26T03:42:37;46.63;;;43.50;;
12038;SDS011;6080;48.818;9.526;2023-06-26T03:45:03;44.37;;;41.67;;
12038;SDS011;6080;48.818;9.526;2023-06-26T03:47:29;49.13;;;46.10;;
12038;SDS011;6080;48.818;9.526;2023-06-26T03:49:54;47.43;;;44.23;;
12038;SDS011;6080;48.818;9.526;2023-06-26T03:52:20;55.67;;;52.20;;
12038;SDS011;6080;48.818;9.526;2023-06-26T03:54:46;60.67;;;56.90;;
12038;SDS011;6080;48.818;9.526;2023-06-26T03:57:13;55.13;;;51.80;;
12038;SDS011;6080;48.818;9.526;2023-06-26T03:59:39;82.47;;;77.87;;
12038;SDS011;6080;48.818;9.526;2023-06-26T04:02:05;51.20;;;48.10;;
12038;SDS011;6080;48.818;9.526;2023-06-26T04:04:31;58.90;;;55.17;;
12038;SDS011;6080;48.818;9.526;2023-06-26T04:06:57;56.30;;;52.57;;
12038;SDS011;6080;48.818;9.526;2023-06-26T04:09:24;64.03;;;60.10;;
12038;SDS011;6080;48.818;9.526;2023-06-26T04:11:50;78.47;;;73.90;;
12038;SDS011;6080;48.818;9.526;2023-06-26T04:14:16;98.67;;;93.10;;
12038;SDS011;6080;48.818;9.526;2023-06-26T04:16:42;130.87;;;123.23;;
12038;SDS011;6080;48.818;9.526;2023-06-26T04:19:08;86.67;;;81.73;;
12038;SDS011;6080;48.818;9.526;2023-06-26T04:21:35;75.90;;;71.10;;
12038;SDS011;6080;48.818;9.526;2023-06-26T04:24:01;46.33;;;43.33;;
12038;SDS011;6080;48.818;9.526;2023-06-26T04:26:27;47.90;;;44.50;;
12038;SDS011;6080;48.818;9.526;2023-06-26T04:28:53;31.98;;;29.73;;
12038;SDS011;6080;48.818;9.526;2023-06-26T04:31:19;42.15;;;39.38;;
12038;SDS011;6080;48.818;9.526;2023-06-26T04:33:45;48.63;;;45.63;;
12038;SDS011;6080;48.818;9.526;2023-06-26T04:36:16;46.45;;;43.63;;
12038;SDS011;6080;48.818;9.526;2023-06-26T04:38:42;26.60;;;24.70;;
12038;SDS011;6080;48.818;9.526;2023-06-26T04:41:08;12.63;;;11.43;;
12038;SDS011;6080;48.818;9.526;2023-06-26T04:43:34;13.65;;;10.30;;
12038;SDS011;6080;48.818;9.526;2023-06-26T04:46:02;11.73;;;10.52;;
12038;SDS011;6080;48.818;9.526;2023-06-26T04:48:28;12.10;;;10.73;;
12038;SDS011;6080;48.818;9.526;2023-06-26T04:50:56;12.27;;;9.95;;
12038;SDS011;6080;48.818;9.526;2023-06-26T04:53:24;14.00;;;12.80;;
12038;SDS011;6080;48.818;9.526;2023-06-26T04:55:50;13.95;;;12.60;;
12038;SDS011;6080;48.818;9.526;2023-06-26T04:58:17;12.75;;;11.55;;
12038;SDS011;6080;48.818;9.526;2023-06-26T05:00:43;12.35;;;11.18;;
12038;SDS011;6080;48.818;9.526;2023-06-26T05:03:09;16.05;;;14.52;;
12038;SDS011;6080;48.818;9.526;2023-06-26T05:05:36;13.65;;;12.38;;
12038;SDS011;6080;48.818;9.526;2023-06-26T05:08:12;20.08;;;18.58;;
12038;SDS011;6080;48.818;9.526;2023-06-26T05:10:56;23.27;;;21.45;;
12038;SDS011;6080;48.818;9.526;2023-06-26T05:13:25;13.40;;;11.77;;
12038;SDS011;6080;48.818;9.526;2023-06-26T05:15:51;17.15;;;15.70;;
12038;SDS011;6080;48.818;9.526;2023-06-26T05:18:17;11.50;;;10.40;;
12038;SDS011;6080;48.818;9.526;2023-06-26T05:20:44;11.48;;;10.32;;
12038;SDS011;6080;48.818;9.526;2023-06-26T05:23:13;12.15;;;10.75;;
12038;SDS011;6080;48.818;9.526;2023-06-26T05:25:39;16.05;;;11.30;;
12038;SDS011;6080;48.818;9.526;2023-06-26T05:28:06;20.92;;;19.35;;
12038;SDS011;6080;48.818;9.526;2023-06-26T05:30:35;18.08;;;16.42;;
12038;SDS011;6080;48.818;9.526;2023-06-26T05:33:01;23.70;;;22.15;;
12038;SDS011;6080;48.818;9.526;2023-06-26T05:35:28;28.25;;;26.35;;
12038;SDS011;6080;48.818;9.526;2023-06-26T05:37:55;22.30;;;20.88;;
12038;SDS011;6080;48.818;9.526;2023-06-26T05:40:22;21.45;;;19.77;;
12038;SDS011;6080;48.818;9.526;2023-06-26T05:42:48;40.28;;;37.88;;
12038;SDS011;6080;48.818;9.526;2023-06-26T05:45:14;50.17;;;47.25;;
12038;SDS011;6080;48.818;9.526;2023-06-26T05:47:40;29.98;;;28.13;;
12038;SDS011;6080;48.818;9.526;2023-06-26T05:50:07;21.65;;;20.02;;
12038;SDS011;6080;48.818;9.526;2023-06-26T05:52:34;15.40;;;14.10;;
12038;SDS011;6080;48.818;9.526;2023-06-26T05:55:00;12.20;;;11.10;;
12038;SDS011;6080;48.818;9.526;2023-06-26T05:57:27;13.02;;;12.02;;
12038;SDS011;6080;48.818;9.526;2023-06-26T05:59:54;12.93;;;11.98;;
12038;SDS011;6080;48.818;9.526;2023-06-26T06:02:21;23.17;;;21.38;;
12038;SDS011;6080;48.818;9.526;2023-06-26T06:04:47;41.58;;;39.20;;
12038;SDS011;6080;48.818;9.526;2023-06-26T06:07:13;48.58;;;45.65;;
12038;SDS011;6080;48.818;9.526;2023-06-26T06:09:38;53.75;;;50.72;;
12038;SDS011;6080;48.818;9.526;2023-06-26T06:12:05;63.47;;;59.78;;
12038;SDS011;6080;48.818;9.526;2023-06-26T06:14:32;47.40;;;44.45;;
12038;SDS011;6080;48.818;9.526;2023-06-26T06:16:58;17.55;;;16.30;;
12038;SDS011;6080;48.818;9.526;2023-06-26T06:19:23;13.13;;;12.15;;
12038;SDS011;6080;48.818;9.526;2023-06-26T06:21:49;14.43;;;13.15;;
12038;SDS011;6080;48.818;9.526;2023-06-26T06:24:15;15.23;;;14.13;;
12038;SDS011;6080;48.818;9.526;2023-06-26T06:26:41;15.70;;;14.30;;
12038;SDS011;6080;48.818;9.526;2023-06-26T06:29:07;18.35;;;16.88;;
12038;SDS011;6080;48.818;9.526;2023-06-26T06:31:33;14.98;;;13.65;;
12038;SDS011;6080;48.818;9.526;2023-06-26T06:33:59;12.80;;;11.60;;
12038;SDS011;6080;48.818;9.526;2023-06-26T06:36:25;10.75;;;9.75;;
12038;SDS011;6080;48.818;9.526;2023-06-26T06:38:50;8.98;;;8.10;;
12038;SDS011;6080;48.818;9.526;2023-06-26T06:41:16;10.05;;;9.25;;
12038;SDS011;6080;48.818;9.526;2023-06-26T06:43:42;11.35;;;8.68;;
12038;SDS011;6080;48.818;9.526;2023-06-26T06:46:08;9.13;;;8.43;;
12038;SDS011;6080;48.818;9.526;2023-06-26T06:48:34;11.73;;;10.60;;
12038;SDS011;6080;48.818;9.526;2023-06-26T06:51:00;12.15;;;11.05;;
12038;SDS011;6080;48.818;9.526;2023-06-26T06:53:26;22.92;;;21.20;;
12038;SDS011;6080;48.818;9.526;2023-06-26T06:55:52;16.50;;;15.35;;
12038;SDS011;6080;48.818;9.526;2023-06-26T06:58:18;14.65;;;13.55;;
12038;SDS011;6080;48.818;9.526;2023-06-26T07:00:45;13.63;;;12.55;;
12038;SDS011;6080;48.818;9.526;2023-06-26T07:03:11;12.30;;;10.85;;
12038;SDS011;6080;48.818;9.526;2023-06-26T07:05:37;11.13;;;9.88;;
12038;SDS011;6080;48.818;9.526;2023-06-26T07:08:03;12.52;;;11.52;;
12038;SDS011;6080;48.818;9.526;2023-06-26T07:10:29;10.63;;;9.55;;
12038;SDS011;6080;48.818;9.526;2023-06-26T07:12:56;11.85;;;10.88;;
12038;SDS011;6080;48.818;9.526;2023-06-26T07:15:22;11.95;;;10.95;;
12038;SDS011;6080;48.818;9.526;2023-06-26T07:17:48;11.65;;;10.85;;
12038;SDS011;6080;48.818;9.526;2023-06-26T07:20:14;11.63;;;10.73;;
12038;SDS011;6080;48.818;9.526;2023-06-26T07:22:42;10.63;;;9.68;;
12038;SDS011;6080;48.818;9.526;2023-06-26T07:25:10;17.92;;;16.73;;
12038;SDS011;6080;48.818;9.526;2023-06-26T07:27:40;31.08;;;29.35;;
12038;SDS011;6080;48.818;9.526;2023-06-26T07:30:06;63.85;;;60.28;;
12038;SDS011;6080;48.818;9.526;2023-06-26T07:32:36;75.65;;;71.65;;
12038;SDS011;6080;48.818;9.526;2023-06-26T07:35:03;66.75;;;63.28;;
12038;SDS011;6080;48.818;9.526;2023-06-26T07:37:30;69.70;;;66.15;;
12038;SDS011;6080;48.818;9.526;2023-06-26T07:39:57;70.43;;;66.85;;
12038;SDS011;6080;48.818;9.526;2023-06-26T07:42:23;96.82;;;91.95;;
12038;SDS011;6080;48.818;9.526;2023-06-26T07:44:48;86.68;;;82.32;;
12038;SDS011;6080;48.818;9.526;2023-06-26T07:47:14;80.43;;;76.38;;
12038;SDS011;6080;48.818;9.526;2023-06-26T07:49:40;78.35;;;74.38;;
12038;SDS011;6080;48.818;9.526;2023-06-26T07:52:06;70.05;;;66.50;;
12038;SDS011;6080;48.818;9.526;2023-06-26T07:54:35;36.25;;;34.25;;
12038;SDS011;6080;48.818;9.526;2023-06-26T07:57:02;59.75;;;56.60;;
12038;SDS011;6080;48.818;9.526;2023-06-26T07:59:32;39.25;;;36.95;;
12038;SDS011;6080;48.818;9.526;2023-06-26T08:01:58;32.22;;;30.00;;
12038;SDS011;6080;48.818;9.526;2023-06-26T08:04:25;17.70;;;16.67;;
12038;SDS011;6080;48.818;9.526;2023-06-26T08:06:53;9.85;;;9.15;;
12038;SDS011;6080;48.818;9.526;2023-06-26T08:09:22;15.63;;;14.18;;
12038;SDS011;6080;48.818;9.526;2023-06-26T08:11:51;15.38;;;14.23;;
12038;SDS011;6080;48.818;9.526;2023-06-26T08:14:17;12.27;;;11.38;;
12038;SDS011;6080;48.818;9.526;2023-06-26T08:16:43;10.77;;;9.88;;
12038;SDS011;6080;48.818;9.526;2023-06-26T08:19:10;11.00;;;10.27;;
12038;SDS011;6080;48.818;9.526;2023-06-26T08:21:42;10.68;;;9.98;;
12038;SDS011;6080;48.818;9.526;2023-06-26T08:24:09;12.45;;;11.65;;
12038;SDS011;6080;48.818;9.526;2023-06-26T08:26:35;9.95;;;9.23;;
12038;SDS011;6080;48.818;9.526;2023-06-26T08:29:02;14.13;;;13.05;;
12038;SDS011;6080;48.818;9.526;2023-06-26T08:31:35;11.73;;;10.93;;
12038;SDS011;6080;48.818;9.526;2023-06-26T08:34:02;12.57;;;11.68;;
12038;SDS011;6080;48.818;9.526;2023-06-26T08:36:28;16.65;;;15.63;;
12038;SDS011;6080;48.818;9.526;2023-06-26T08:38:54;11.23;;;10.48;;
12038;SDS011;6080;48.818;9.526;2023-06-26T08:41:21;18.13;;;16.83;;
12038;SDS011;6080;48.818;9.526;2023-06-26T08:43:47;18.83;;;17.52;;
12038;SDS011;6080;48.818;9.526;2023-06-26T08:46:16;25.45;;;23.90;;
12038;SDS011;6080;48.818;9.526;2023-06-26T08:48:44;26.40;;;24.40;;
12038;SDS011;6080;48.818;9.526;2023-06-26T08:51:15;22.42;;;20.60;;
12038;SDS011;6080;48.818;9.526;2023-06-26T08:53:46;10.38;;;9.48;;
12038;SDS011;6080;48.818;9.526;2023-06-26T08:56:17;9.88;;;9.18;;
12038;SDS011;6080;48.818;9.526;2023-06-26T08:58:46;10.35;;;9.63;;
12038;SDS011;6080;48.818;9.526;2023-06-26T09:01:12;11.57;;;10.55;;
12038;SDS011;6080;48.818;9.526;2023-06-26T09:03:38;12.45;;;11.55;;
12038;SDS011;6080;48.818;9.526;2023-06-26T09:06:06;17.58;;;16.27;;
12038;SDS011;6080;48.818;9.526;2023-06-26T09:08:32;14.80;;;13.90;;
12038;SDS011;6080;48.818;9.526;2023-06-26T09:10:59;16.50;;;15.57;;
12038;SDS011;6080;48.818;9.526;2023-06-26T09:13:25;11.55;;;10.73;;
12038;SDS011;6080;48.818;9.526;2023-06-26T09:15:52;10.05;;;9.27;;
12038;SDS011;6080;48.818;9.526;2023-06-26T09:18:20;11.63;;;10.68;;
12038;SDS011;6080;48.818;9.526;2023-06-26T09:20:46;12.20;;;11.25;;
12038;SDS011;6080;48.818;9.526;2023-06-26T09:23:13;10.93;;;10.23;;
12038;SDS011;6080;48.818;9.526;2023-06-26T09:25:40;10.40;;;9.18;;
12038;SDS011;6080;48.818;9.526;2023-06-26T09:28:06;14.52;;;13.40;;
12038;SDS011;6080;48.818;9.526;2023-06-26T09:30:33;14.32;;;13.25;;
12038;SDS011;6080;48.818;9.526;2023-06-26T09:33:15;13.10;;;12.18;;
12038;SDS011;6080;48.818;9.526;2023-06-26T09:35:42;21.63;;;19.80;;
12038;SDS011;6080;48.818;9.526;2023-06-26T09:38:09;24.92;;;23.58;;
12038;SDS011;6080;48.818;9.526;2023-06-26T09:40:35;56.38;;;53.10;;
12038;SDS011;6080;48.818;9.526;2023-06-26T09:43:06;63.20;;;59.90;;
12038;SDS011;6080;48.818;9.526;2023-06-26T09:45:33;115.15;;;109.30;;
12038;SDS011;6080;48.818;9.526;2023-06-26T09:48:01;138.40;;;131.80;;
12038;SDS011;6080;48.818;9.526;2023-06-26T09:50:32;153.82;;;146.20;;
12038;SDS011;6080;48.818;9.526;2023-06-26T09:53:09;152.43;;;145.02;;
12038;SDS011;6080;48.818;9.526;2023-06-26T09:55:36;161.35;;;153.43;;
12038;SDS011;6080;48.818;9.526;2023-06-26T09:58:03;111.70;;;106.13;;
12038;SDS011;6080;48.818;9.526;2023-06-26T10:00:30;66.40;;;62.92;;
12038;SDS011;6080;48.818;9.526;2023-06-26T10:02:57;54.75;;;51.83;;
12038;SDS011;6080;48.818;9.526;2023-06-26T10:05:23;89.43;;;85.00;;
12038;SDS011;6080;48.818;9.526;2023-06-26T10:07:49;100.57;;;95.45;;
12038;SDS011;6080;48.818;9.526;2023-06-26T10:10:16;115.00;;;108.95;;
12038;SDS011;6080;48.818;9.526;2023-06-26T10:12:42;57.05;;;53.88;;
12038;SDS011;6080;48.818;9.526;2023-06-26T10:15:13;16.25;;;15.32;;
12038;SDS011;6080;48.818;9.526;2023-06-26T10:17:41;15.77;;;14.68;;
12038;SDS011;6080;48.818;9.526;2023-06-26T10:20:08;25.73;;;24.23;;
12038;SDS011;6080;48.818;9.526;2023-06-26T10:22:36;34.63;;;32.60;;
12038;SDS011;6080;48.818;9.526;2023-06-26T10:25:06;72.97;;;69.22;;
12038;SDS011;6080;48.818;9.526;2023-06-26T10:27:35;88.97;;;84.50;;
12038;SDS011;6080;48.818;9.526;2023-06-26T10:30:09;81.88;;;77.65;;
12038;SDS011;6080;48.818;9.526;2023-06-26T10:32:39;130.05;;;123.22;;
12038;SDS011;6080;48.818;9.526;2023-06-26T10:35:06;152.15;;;144.60;;
12038;SDS011;6080;48.818;9.526;2023-06-26T10:37:45;140.57;;;133.57;;
12038;SDS011;6080;48.818;9.526;2023-06-26T10:40:13;124.85;;;118.70;;
12038;SDS011;6080;48.818;9.526;2023-06-26T10:42:45;158.73;;;150.60;;
12038;SDS011;6080;48.818;9.526;2023-06-26T10:45:15;165.27;;;157.10;;
12038;SDS011;6080;48.818;9.526;2023-06-26T10:47:48;168.05;;;159.63;;
12038;SDS011;6080;48.818;9.526;2023-06-26T10:52:44;40.20;;;37.72;;
12038;SDS011;6080;48.818;9.526;2023-06-26T10:55:10;49.00;;;46.35;;
12038;SDS011;6080;48.818;9.526;2023-06-26T10:57:36;56.15;;;52.95;;
12038;SDS011;6080;48.818;9.526;2023-06-26T11:00:09;135.88;;;129.15;;
12038;SDS011;6080;48.818;9.526;2023-06-26T11:03:13;141.27;;;134.20;;
12038;SDS011;6080;48.818;9.526;2023-06-26T11:05:48;54.53;;;51.58;;
12038;SDS011;6080;48.818;9.526;2023-06-26T11:08:47;34.80;;;32.75;;
12038;SDS011;6080;48.818;9.526;2023-06-26T11:11:20;61.85;;;58.15;;
12038;SDS011;6080;48.818;9.526;2023-06-26T11:13:47;99.70;;;94.22;;
12038;SDS011;6080;48.818;9.526;2023-06-26T11:16:14;147.90;;;140.57;;
12038;SDS011;6080;48.818;9.526;2023-06-26T11:18:44;148.18;;;140.98;;
12038;SDS011;6080;48.818;9.526;2023-06-26T11:21:11;146.82;;;139.65;;
12038;SDS011;6080;48.818;9.526;2023-06-26T11:23:40;42.28;;;39.97;;
12038;SDS011;6080;48.818;9.526;2023-06-26T11:26:14;9.73;;;8.98;;
12038;SDS011;6080;48.818;9.526;2023-06-26T11:28:55;49.95;;;47.10;;
12038;SDS011;6080;48.818;9.526;2023-06-26T11:31:28;129.90;;;123.50;;
12038;SDS011;6080;48.818;9.526;2023-06-26T11:34:02;75.43;;;71.47;;
12038;SDS011;6080;48.818;9.526;2023-06-26T11:36:30;77.28;;;73.25;;
12038;SDS011;6080;48.818;9.526;2023-06-26T11:38:56;34.55;;;32.53;;
12038;SDS011;6080;48.818;9.526;2023-06-26T11:41:24;45.58;;;42.80;;
12038;SDS011;6080;48.818;9.526;2023-06-26T11:43:52;13.30;;;12.32;;
12038;SDS011;6080;48.818;9.526;2023-06-26T11:46:20;10.68;;;9.98;;
12038;SDS011;6080;48.818;9.526;2023-06-26T11:48:47;26.80;;;24.95;;
12038;SDS011;6080;48.818;9.526;2023-06-26T11:51:16;106.60;;;101.05;;
12038;SDS011;6080;48.818;9.526;2023-06-26T11:53:42;111.18;;;105.68;;
12038;SDS011;6080;48.818;9.526;2023-06-26T11:56:10;110.97;;;105.28;;
12038;SDS011;6080;48.818;9.526;2023-06-26T11:58:36;121.38;;;115.13;;
12038;SDS011;6080;48.818;9.526;2023-06-26T12:01:19;19.15;;;17.75;;
12038;SDS011;6080;48.818;9.526;2023-06-26T12:03:47;25.40;;;23.50;;
12038;SDS011;6080;48.818;9.526;2023-06-26T12:06:14;94.68;;;89.82;;
12038;SDS011;6080;48.818;9.526;2023-06-26T12:08:41;133.73;;;126.82;;
12038;SDS011;6080;48.818;9.526;2023-06-26T12:11:07;65.63;;;62.05;;
12038;SDS011;6080;48.818;9.526;2023-06-26T12:13:33;18.88;;;17.77;;
12038;SDS011;6080;48.818;9.526;2023-06-26T12:15:59;20.10;;;18.90;;
12038;SDS011;6080;48.818;9.526;2023-06-26T12:18:25;23.30;;;21.90;;
12038;SDS011;6080;48.818;9.526;2023-06-26T12:20:58;24.08;;;21.88;;
12038;SDS011;6080;48.818;9.526;2023-06-26T12:23:23;18.63;;;17.05;;
12038;SDS011;6080;48.818;9.526;2023-06-26T12:25:56;15.10;;;13.85;;
12038;SDS011;6080;48.818;9.526;2023-06-26T12:28:22;22.45;;;20.80;;
12038;SDS011;6080;48.818;9.526;2023-06-26T12:31:11;16.15;;;14.70;;
12038;SDS011;6080;48.818;9.526;2023-06-26T12:33:42;218.88;;;207.57;;
12038;SDS011;6080;48.818;9.526;2023-06-26T12:36:14;159.15;;;151.35;;
12038;SDS011;6080;48.818;9.526;2023-06-26T12:38:41;57.67;;;54.38;;
12038;SDS011;6080;48.818;9.526;2023-06-26T12:41:14;65.32;;;61.42;;
12038;SDS011;6080;48.818;9.526;2023-06-26T12:43:41;93.25;;;88.43;;
12038;SDS011;6080;48.818;9.526;2023-06-26T12:46:07;94.32;;;89.47;;
12038;SDS011;6080;48.818;9.526;2023-06-26T12:48:40;127.97;;;121.40;;
12038;SDS011;6080;48.818;9.526;2023-06-26T12:51:12;195.43;;;185.40;;
12038;SDS011;6080;48.818;9.526;2023-06-26T12:53:40;138.27;;;131.07;;
12038;SDS011;6080;48.818;9.526;2023-06-26T12:56:06;65.72;;;62.35;;
12038;SDS011;6080;48.818;9.526;2023-06-26T12:58:33;127.70;;;120.85;;
12038;SDS011;6080;48.818;9.526;2023-06-26T13:00:59;173.57;;;164.70;;
12038;SDS011;6080;48.818;9.526;2023-06-26T13:03:25;125.53;;;118.88;;
12038;SDS011;6080;48.818;9.526;2023-06-26T13:05:50;105.25;;;99.82;;
12038;SDS011;6080;48.818;9.526;2023-06-26T13:08:16;59.08;;;55.92;;
12038;SDS011;6080;48.818;9.526;2023-06-26T13:10:43;85.93;;;81.57;;
12038;SDS011;6080;48.818;9.526;2023-06-26T13:13:12;29.55;;;27.52;;
12038;SDS011;6080;48.818;9.526;2023-06-26T13:15:38;10.85;;;10.15;;
12038;SDS011;6080;48.818;9.526;2023-06-26T13:18:04;26.15;;;24.30;;
12038;SDS011;6080;48.818;9.526;2023-06-26T13:20:31;228.63;;;217.07;;
12038;SDS011;6080;48.818;9.526;2023-06-26T13:22:58;173.02;;;163.77;;
12038;SDS011;6080;48.818;9.526;2023-06-26T13:25:27;151.23;;;143.60;;
12038;SDS011;6080;48.818;9.526;2023-06-26T13:27:54;177.10;;;168.23;;
12038;SDS011;6080;48.818;9.526;2023-06-26T13:30:21;185.38;;;175.70;;
12038;SDS011;6080;48.818;9.526;2023-06-26T13:32:49;186.65;;;176.88;;
12038;SDS011;6080;48.818;9.526;2023-06-26T13:35:15;173.60;;;164.85;;
12038;SDS011;6080;48.818;9.526;2023-06-26T13:37:41;176.55;;;167.20;;
12038;SDS011;6080;48.818;9.526;2023-06-26T13:40:08;129.32;;;122.63;;
12038;SDS011;6080;48.818;9.526;2023-06-26T13:42:34;144.98;;;137.70;;
12038;SDS011;6080;48.818;9.526;2023-06-26T13:45:02;90.18;;;85.47;;
12038;SDS011;6080;48.818;9.526;2023-06-26T13:47:28;50.35;;;47.42;;
12038;SDS011;6080;48.818;9.526;2023-06-26T13:49:54;101.47;;;96.38;;
12038;SDS011;6080;48.818;9.526;2023-06-26T13:52:20;122.80;;;116.45;;
12038;SDS011;6080;48.818;9.526;2023-06-26T13:54:46;175.13;;;166.40;;
12038;SDS011;6080;48.818;9.526;2023-06-26T13:57:11;193.68;;;183.95;;
12038;SDS011;6080;48.818;9.526;2023-06-26T13:59:38;180.38;;;171.40;;
12038;SDS011;6080;48.818;9.526;2023-06-26T14:02:05;164.77;;;156.10;;
12038;SDS011;6080;48.818;9.526;2023-06-26T14:04:32;118.80;;;112.75;;
12038;SDS011;6080;48.818;9.526;2023-06-26T14:06:58;55.75;;;52.78;;
12038;SDS011;6080;48.818;9.526;2023-06-26T14:09:23;87.97;;;83.47;;
12038;SDS011;6080;48.818;9.526;2023-06-26T14:11:49;26.67;;;24.75;;
12038;SDS011;6080;48.818;9.526;2023-06-26T14:14:15;123.60;;;116.90;;
12038;SDS011;6080;48.818;9.526;2023-06-26T14:16:41;140.98;;;133.90;;
12038;SDS011;6080;48.818;9.526;2023-06-26T14:19:07;139.40;;;132.40;;
12038;SDS011;6080;48.818;9.526;2023-06-26T14:21:41;131.55;;;124.93;;
12038;SDS011;6080;48.818;9.526;2023-06-26T14:24:06;101.55;;;96.57;;
12038;SDS011;6080;48.818;9.526;2023-06-26T14:26:32;92.78;;;87.95;;
12038;SDS011;6080;48.818;9.526;2023-06-26T14:28:59;98.85;;;93.68;;
12038;SDS011;6080;48.818;9.526;2023-06-26T14:31:25;95.68;;;90.57;;
12038;SDS011;6080;48.818;9.526;2023-06-26T14:33:51;67.25;;;63.70;;
12038;SDS011;6080;48.818;9.526;2023-06-26T14:36:17;64.70;;;61.35;;
12038;SDS011;6080;48.818;9.526;2023-06-26T14:38:44;71.18;;;67.53;;
12038;SDS011;6080;48.818;9.526;2023-06-26T14:41:10;26.95;;;25.40;;
12038;SDS011;6080;48.818;9.526;2023-06-26T14:43:36;8.57;;;7.75;;
12038;SDS011;6080;48.818;9.526;2023-06-26T14:46:03;7.78;;;7.18;;
12038;SDS011;6080;48.818;9.526;2023-06-26T14:48:28;8.85;;;8.02;;
12038;SDS011;6080;48.818;9.526;2023-06-26T14:50:54;8.68;;;8.00;;
12038;SDS011;6080;48.818;9.526;2023-06-26T14:53:20;16.35;;;15.30;;
12038;SDS011;6080;48.818;9.526;2023-06-26T14:55:46;10.73;;;9.98;;
12038;SDS011;6080;48.818;9.526;2023-06-26T14:58:11;7.25;;;6.32;;
12038;SDS011;6080;48.818;9.526;2023-06-26T15:00:37;7.07;;;6.50;;
12038;SDS011;6080;48.818;9.526;2023-06-26T15:03:03;10.23;;;7.20;;
12038;SDS011;6080;48.818;9.526;2023-06-26T15:05:29;9.65;;;9.00;;
12038;SDS011;6080;48.818;9.526;2023-06-26T15:07:54;46.22;;;43.28;;
12038;SDS011;6080;48.818;9.526;2023-06-26T15:10:20;56.42;;;53.38;;
12038;SDS011;6080;48.818;9.526;2023-06-26T15:12:46;90.75;;;86.00;;
12038;SDS011;6080;48.818;9.526;2023-06-26T15:15:12;68.38;;;64.72;;
12038;SDS011;6080;48.818;9.526;2023-06-26T15:17:38;65.55;;;62.17;;
12038;SDS011;6080;48.818;9.526;2023-06-26T15:20:04;101.95;;;96.65;;
12038;SDS011;6080;48.818;9.526;2023-06-26T15:22:31;110.50;;;104.75;;
12038;SDS011;6080;48.818;9.526;2023-06-26T15:24:56;98.05;;;93.05;;
12038;SDS011;6080;48.818;9.526;2023-06-26T15:27:22;52.80;;;50.05;;
12038;SDS011;6080;48.818;9.526;2023-06-26T15:29:48;31.73;;;29.70;;
12038;SDS011;6080;48.818;9.526;2023-06-26T15:32:14;29.65;;;28.10;;
12038;SDS011;6080;48.818;9.526;2023-06-26T15:34:41;26.20;;;24.45;;
12038;SDS011;6080;48.818;9.526;2023-06-26T15:37:07;21.83;;;20.40;;
12038;SDS011;6080;48.818;9.526;2023-06-26T15:39:33;39.08;;;36.42;;
12038;SDS011;6080;48.818;9.526;2023-06-26T15:41:58;16.60;;;15.70;;
12038;SDS011;6080;48.818;9.526;2023-06-26T15:44:24;9.70;;;6.43;;
12038;SDS011;6080;48.818;9.526;2023-06-26T15:46:50;8.70;;;5.05;;
12038;SDS011;6080;48.818;9.526;2023-06-26T15:49:16;8.48;;;5.65;;
12038;SDS011;6080;48.818;9.526;2023-06-26T15:51:42;14.45;;;6.35;;
12038;SDS011;6080;48.818;9.526;2023-06-26T15:54:10;7.38;;;6.68;;
12038;SDS011;6080;48.818;9.526;2023-06-26T15:56:36;6.22;;;5.78;;
12038;SDS011;6080;48.818;9.526;2023-06-26T15:59:02;8.15;;;6.82;;
12038;SDS011;6080;48.818;9.526;2023-06-26T16:01:28;7.50;;;7.00;;
12038;SDS011;6080;48.818;9.526;2023-06-26T16:03:54;6.18;;;5.65;;
12038;SDS011;6080;48.818;9.526;2023-06-26T16:06:19;8.13;;;7.45;;
12038;SDS011;6080;48.818;9.526;2023-06-26T16:08:45;10.82;;;9.98;;
12038;SDS011;6080;48.818;9.526;2023-06-26T16:11:14;39.25;;;36.60;;
12038;SDS011;6080;48.818;9.526;2023-06-26T16:13:39;43.25;;;40.88;;
12038;SDS011;6080;48.818;9.526;2023-06-26T16:16:05;18.35;;;17.15;;
12038;SDS011;6080;48.818;9.526;2023-06-26T16:18:33;9.85;;;9.10;;
12038;SDS011;6080;48.818;9.526;2023-06-26T16:20:59;14.05;;;12.20;;
12038;SDS011;6080;48.818;9.526;2023-06-26T16:23:24;17.25;;;15.95;;
12038;SDS011;6080;48.818;9.526;2023-06-26T16:25:50;12.10;;;11.18;;
12038;SDS011;6080;48.818;9.526;2023-06-26T16:28:16;11.75;;;8.98;;
12038;SDS011;6080;48.818;9.526;2023-06-26T16:30:42;10.57;;;9.25;;
12038;SDS011;6080;48.818;9.526;2023-06-26T16:33:08;12.88;;;10.48;;
12038;SDS011;6080;48.818;9.526;2023-06-26T16:35:34;31.10;;;20.83;;
12038;SDS011;6080;48.818;9.526;2023-06-26T16:38:00;14.38;;;12.85;;
12038;SDS011;6080;48.818;9.526;2023-06-26T16:40:27;11.88;;;10.70;;
12038;SDS011;6080;48.818;9.526;2023-06-26T16:42:55;12.35;;;11.25;;
12038;SDS011;6080;48.818;9.526;2023-06-26T16:45:21;11.23;;;10.43;;
12038;SDS011;6080;48.818;9.526;2023-06-26T16:47:47;12.68;;;11.48;;
12038;SDS011;6080;48.818;9.526;2023-06-26T16:50:13;12.63;;;11.63;;
12038;SDS011;6080;48.818;9.526;2023-06-26T16:52:39;13.48;;;12.27;;
12038;SDS011;6080;48.818;9.526;2023-06-26T16:55:07;12.10;;;11.15;;
12038;SDS011;6080;48.818;9.526;2023-06-26T16:57:36;11.98;;;10.43;;
12038;SDS011;6080;48.818;9.526;2023-06-26T17:00:03;10.68;;;9.80;;
12038;SDS011;6080;48.818;9.526;2023-06-26T17:02:30;11.57;;;10.70;;
12038;SDS011;6080;48.818;9.526;2023-06-26T17:04:59;11.77;;;10.57;;
12038;SDS011;6080;48.818;9.526;2023-06-26T17:07:26;13.20;;;11.95;;
12038;SDS011;6080;48.818;9.526;2023-06-26T17:09:52;12.77;;;11.68;;
12038;SDS011;6080;48.818;9.526;2023-06-26T17:12:17;14.25;;;12.63;;
12038;SDS011;6080;48.818;9.526;2023-06-26T17:14:43;14.23;;;13.02;;
12038;SDS011;6080;48.818;9.526;2023-06-26T17:17:09;14.50;;;13.50;;
12038;SDS011;6080;48.818;9.526;2023-06-26T17:19:35;13.30;;;12.05;;
12038;SDS011;6080;48.818;9.526;2023-06-26T17:22:02;13.80;;;13.00;;
12038;SDS011;6080;48.818;9.526;2023-06-26T17:24:28;11.95;;;11.07;;
12038;SDS011;6080;48.818;9.526;2023-06-26T17:27:07;8.65;;;7.78;;
12038;SDS011;6080;48.818;9.526;2023-06-26T17:29:34;7.80;;;7.32;;
12038;SDS011;6080;48.818;9.526;2023-06-26T17:32:00;8.00;;;7.30;;
12038;SDS011;6080;48.818;9.526;2023-06-26T17:34:25;10.02;;;7.82;;
12038;SDS011;6080;48.818;9.526;2023-06-26T17:36:51;12.63;;;7.72;;